METAR Data
IDs: Format: Raw Decoded Include TAF

Data at: 0950 UTC 26 Jan 2020

KPBH 260935Z AUTO 32003KT 10SM OVC005 M02/M02 A2984 RMK AO2 T10251025
KPBH 260915Z AUTO 30005KT 10SM OVC005 M02/M02 A2985 RMK AO2 T10251025
KPBH 260855Z AUTO 30006KT 10SM OVC007 M02/M02 A2985 RMK AO2 T10221022
KPBH 260835Z AUTO 32008KT 10SM OVC007 M02/M02 A2985 RMK AO2 T10201020
KPBH 260815Z AUTO 31006KT 10SM OVC007 M02/M02 A2985 RMK AO2 T10201020
KPBH 260755Z AUTO 31006KT 10SM OVC007 M02/M02 A2984 RMK AO2 T10201020
KPBH 260735Z AUTO 30004KT 10SM OVC007 M02/M02 A2984 RMK AO2 T10181020
KPBH 260715Z AUTO 30004KT 10SM OVC007 M02/M02 A2985 RMK AO2 T10171020
KPBH 260655Z AUTO 31005KT 10SM OVC007 M02/M02 A2985 RMK AO2 T10171018
KPBH 260635Z AUTO 30004KT 10SM OVC007 M02/M02 A2984 RMK AO2 T10171018
KPBH 260615Z AUTO 31006KT 10SM OVC007 M02/M02 A2984 RMK AO2 T10171018
KPBH 260555Z AUTO 31006KT 10SM OVC007 M01/M02 A2984 RMK AO2 T10151017 11006 21015 400051015
KPBH 260535Z AUTO 29005KT 10SM OVC009 M01/M01 A2984 RMK AO2 T10131015
KPBH 260515Z AUTO 29003KT 10SM OVC009 M01/M02 A2984 RMK AO2 T10121016
KPBH 260455Z AUTO 32004KT 10SM OVC009 M01/M01 A2983 RMK AO2 T10121015
KPBH 260435Z AUTO 31004KT 10SM OVC009 M01/M01 A2983 RMK AO2 T10111015
KPBH 260415Z AUTO 30005KT 10SM OVC009 M01/M01 A2983 RMK AO2 T10101015
KPBH 260355Z AUTO 32005KT 10SM OVC009 M01/M01 A2984 RMK AO2 T10101015
KPBH 260335Z AUTO 31005KT 10SM OVC007 M01/M01 A2984 RMK AO2 T10101013
KPBH 260315Z AUTO 31005KT 10SM OVC007 M01/M01 A2983 RMK AO2 T10101012
KPBH 260255Z AUTO 00000KT 10SM OVC007 M01/M01 A2983 RMK AO2 T10101011
KPBH 260235Z AUTO 32004KT 10SM OVC007 M01/M01 A2983 RMK AO2 T10101012
KPBH 260215Z AUTO 32004KT 10SM OVC007 M01/M01 A2983 RMK AO2 T10101011
KPBH 260155Z AUTO 32004KT 10SM OVC007 M01/M01 A2983 RMK AO2 T10101010
KPBH 260135Z AUTO 32004KT 5SM -SN OVC007 M01/M01 A2983 RMK AO2 T10101010
KPBH 260115Z AUTO 32004KT 7SM -SN OVC007 M01/M01 A2983 RMK AO2 T10081008
KPBH 260055Z AUTO 32004KT 10SM -SN OVC007 M01/M01 A2983 RMK AO2 T10071008
KPBH 260035Z AUTO 31004KT 10SM -SN OVC007 M01/M01 A2983 RMK AO2 T10061008
KPBH 260015Z AUTO 31005KT 10SM OVC007 M01/M01 A2983 RMK AO2 T10061006
KPBH 252355Z AUTO 32003KT 5SM -SN BKN007 OVC012 M01/M01 A2982 RMK AO2 T10061006 10005 21006
KPBH 252335Z AUTO 31004KT 5SM -SN OVC009 00/00 A2982 RMK AO2 T10051005
KPBH 252315Z AUTO 32005KT 3SM -SN OVC009 00/00 A2982 RMK AO2 T10051005
KPBH 252255Z AUTO 32004KT 4SM -SN OVC009 00/00 A2982 RMK AO2 T10021005
KPBH 252235Z AUTO 30003KT 10SM OVC009 00/00 A2982 RMK AO2 T10011004
KPBH 252215Z AUTO 32005KT 10SM OVC009 00/00 A2982 RMK AO2 T10021003
KPBH 252155Z AUTO 32005KT 7SM -SN OVC011 00/00 A2982 RMK AO2 T10011005
KPBH 252135Z AUTO 34005KT 10SM OVC009 00/00 A2981 RMK AO2 T10011005
KPBH 252115Z AUTO 33009G15KT 3SM -RA OVC009 00/00 A2982 RMK AO2 T00001002
KPBH 252055Z AUTO 34005KT 10SM OVC011 00/00 A2982 RMK AO2 T00001005
KPBH 252035Z AUTO 34007KT 10SM OVC011 00/M01 A2981 RMK AO2 T00021006
KPBH 252015Z AUTO 33006KT 10SM OVC011 00/M01 A2980 RMK AO2 T00031006
KPBH 251955Z AUTO 32004KT 10SM OVC011 00/00 A2980 RMK AO2 T00021005
KPBH 251935Z AUTO 34007KT 10SM OVC011 00/M01 A2981 RMK AO2 T00031007
KPBH 251915Z AUTO 33005KT 10SM OVC011 00/M01 A2981 RMK AO2 T00021007
KPBH 251855Z AUTO 34007KT 10SM OVC011 00/M01 A2981 RMK AO2 T00011007
KPBH 251835Z AUTO 32006KT 10SM OVC011 00/00 A2981 RMK AO2 T00031005
KPBH 251815Z AUTO 33004KT 10SM OVC011 00/00 A2982 RMK AO2 T00031005
KPBH 251755Z AUTO 34006KT 10SM OVC009 00/00 A2982 RMK AO2 T00021005 10002 21011
KPBH 251735Z AUTO 36006KT 10SM OVC009 00/00 A2982 RMK AO2 T00021003
KPBH 251715Z AUTO 33005KT 10SM OVC009 00/00 A2982 RMK AO2 T00011004
KPBH 251655Z AUTO 34005KT 10SM OVC009 00/00 A2983 RMK AO2 T00001005
KPBH 251635Z AUTO 33005KT 10SM OVC009 00/00 A2982 RMK AO2 T00001005
KPBH 251615Z AUTO 35003KT 7SM -SN OVC009 00/00 A2982 RMK AO2 T00001003
KPBH 251555Z AUTO 35006KT 2 1/2SM -SN BKN007 OVC011 00/00 A2982 RMK AO2 VIS 1 3/4V4 T10031003
KPBH 251535Z AUTO 33005KT 7SM -SN BKN009 BKN021 OVC042 00/00 A2982 RMK AO2 T10041004
KPBH 251515Z AUTO 34004KT 7SM -SN OVC007 M01/M01 A2982 RMK AO2 T10071007
KPBH 251455Z AUTO 35005KT 5SM -SN OVC009 M01/M01 A2982 RMK AO2 T10071007
KPBH 251435Z AUTO 35004KT 7SM -SN BKN009 BKN018 OVC039 M01/M01 A2982 RMK AO2 T10101010
KPBH 251415Z AUTO 35005KT 4SM -SN BKN007 BKN012 OVC037 M01/M01 A2982 RMK AO2 T10101010
KPBH 251355Z AUTO 35004KT 5SM -SN BKN007 OVC012 M01/M01 A2982 RMK AO2 T10101010
KPBH 251335Z AUTO 34004KT 4SM -SN OVC007 M01/M01 A2981 RMK AO2 T10101010
KPBH 251315Z AUTO 35004KT 10SM OVC007 M01/M01 A2981 RMK AO2 T10101010
KPBH 251255Z AUTO 34004KT 7SM OVC007 M01/M01 A2981 RMK AO2 T10101010
KPBH 251235Z AUTO 34006KT 7SM OVC009 M01/M01 A2981 RMK AO2 T10101010
KPBH 251215Z AUTO 34005KT 5SM BR OVC009 M01/M01 A2980 RMK AO2 T10111011
KPBH 251155Z AUTO 34004KT 4SM -SN OVC007 M01/M01 A2980 RMK AO2 T10111011 11006 21011
KPBH 251135Z AUTO 34003KT 3SM UP OVC007 M01/M01 A2980 RMK AO2 T10101010
KPBH 251115Z AUTO 33003KT 5SM -SN OVC007 M01/M01 A2980 RMK AO2 T10101010
KPBH 251055Z AUTO 36005KT 4SM -SN OVC007 M01/M01 A2980 RMK AO2 T10101010
KPBH 251035Z AUTO 35004KT 4SM -SN OVC007 M01/M01 A2980 RMK AO2 T10101010
KPBH 251015Z AUTO 34004KT 7SM -SN OVC007 M01/M01 A2980 RMK AO2 T10101010
KPBH 250955Z AUTO 35004KT 7SM -SN OVC007 M01/M01 A2980 RMK AO2 T10101010
KPBH 250935Z AUTO 34003KT 10SM -SN OVC007 M01/M01 A2980 RMK AO2 T10101010
KPBH 250915Z AUTO 34004KT 10SM OVC007 M01/M01 A2980 RMK AO2 T10101010
KPBH 250855Z AUTO 34004KT 7SM OVC007 M01/M01 A2981 RMK AO2 T10101010
KPBH 250835Z AUTO 34003KT 10SM OVC007 M01/M01 A2981 RMK AO2 T10081008
KPBH 250815Z AUTO 35003KT 5SM -SN OVC007 M01/M01 A2981 RMK AO2 T10081008
KPBH 250755Z AUTO 00000KT 5SM -SN OVC007 M01/M01 A2981 RMK AO2 T10081008
KPBH 250735Z AUTO 35003KT 5SM -SN OVC007 M01/M01 A2981 RMK AO2 T10071007
KPBH 250715Z AUTO 01004KT 4SM -SN OVC007 M01/M01 A2982 RMK AO2 T10071007
KPBH 250655Z AUTO 01005KT 7SM UP OVC007 M01/M01 A2982 RMK AO2 T10061006
KPBH 250635Z AUTO 01005KT 10SM OVC007 M01/M01 A2983 RMK AO2 T10061006
KPBH 250615Z AUTO 01006KT 10SM OVC007 M01/M01 A2984 RMK AO2 T10061006
KPBH 250555Z AUTO 36005KT 7SM UP OVC007 M01/M01 A2984 RMK AO2 T10061006 11002 21006 400001017
KPBH 250535Z AUTO 36005KT 7SM OVC007 M01/M01 A2985 RMK AO2 T10061006
KPBH 250515Z AUTO 36004KT 7SM UP OVC007 M01/M01 A2985 RMK AO2 T10061006
KPBH 250455Z AUTO 36005KT 10SM UP OVC007 M01/M01 A2985 RMK AO2 T10061006
KPBH 250435Z AUTO 36004KT 5SM -SN OVC007 M01/M01 A2986 RMK AO2 T10061006
KPBH 250415Z AUTO 36004KT 7SM -SN OVC007 M01/M01 A2986 RMK AO2 T10061006
KPBH 250355Z AUTO 36005KT 10SM OVC007 M01/M01 A2986 RMK AO2 T10061006
KPBH 250335Z AUTO 36005KT 10SM OVC007 00/00 A2986 RMK AO2 T10051005
KPBH 250315Z AUTO 35005KT 10SM OVC007 00/00 A2987 RMK AO2 T10051005
KPBH 250255Z AUTO 36005KT 10SM OVC007 00/00 A2987 RMK AO2 T10051005
KPBH 250235Z AUTO 36005KT 10SM OVC007 00/00 A2988 RMK AO2 T10051005
KPBH 250215Z AUTO 01006KT 10SM OVC009 00/00 A2989 RMK AO2 T10051005
KPBH 250155Z AUTO 01006KT 10SM OVC009 00/00 A2989 RMK AO2 T10051005
KPBH 250135Z AUTO 01005KT 10SM -SN BKN007 OVC014 00/00 A2989 RMK AO2 T10051005
KPBH 250115Z AUTO 01007KT 7SM -SN OVC007 00/00 A2989 RMK AO2 T10051005
KPBH 250055Z AUTO 01005KT 7SM -SN OVC007 00/00 A2989 RMK AO2 T10031003
KPBH 250035Z AUTO 36004KT 7SM -SN OVC007 00/00 A2990 RMK AO2 T10031003
KPBH 250015Z AUTO 36004KT 7SM -SN OVC005 00/00 A2990 RMK AO2 T10021002
KPBH 242355Z AUTO 36004KT 10SM -SN OVC005 00/00 A2991 RMK AO2 T10021002 10000 21002
KPBH 242335Z AUTO 36004KT 5SM -SN BKN007 OVC010 00/00 A2990 RMK AO2 T10011001
KPBH 242315Z AUTO 02006KT 3SM -SN OVC010 00/00 A2990 RMK AO2 T10011001
KPBH 242255Z AUTO 01005KT 4SM -RA OVC010 00/00 A2991 RMK AO2 T00000000
KPBH 242235Z AUTO 02006KT 10SM OVC010 00/00 A2991 RMK AO2 T00001001
KPBH 242215Z AUTO 01006KT 10SM OVC010 00/00 A2990 RMK AO2 T00001001
KPBH 242155Z AUTO 01006KT 10SM OVC010 00/00 A2990 RMK AO2 T00001002